Time;durP1;ratioP1;P1;durP2;ratioP2;P2;SDS_P1;SDS_P2;PMS_P1;PMS_P2;Temp;Humidity;BMP_temperature;BMP_pressure;BME280_temperature;BME280_humidity;BME280_pressure;Samples;Min_cycle;Max_cycle;Signal;HPM_P1;HPM_P2
2023/11/02 01:21:48;;;;;;;0.20;0.20;;;;;;;14.03;100.00;99838.63;5017494;28;20588;-84
2023/11/02 05:59:11;;;;;;;0.20;0.20;;;;;;;16.77;100.00;99751.00;5000066;28;20076;-88
2023/11/02 06:01:37;;;;;;;0.20;0.20;;;;;;;17.14;100.00;99771.13;4984584;28;20042;-87
2023/11/02 06:04:03;;;;;;;0.20;0.20;;;;;;;17.67;100.00;99793.03;5000400;28;20050;-87
2023/11/02 06:06:29;;;;;;;0.20;0.20;;;;;;;17.88;98.89;99777.13;4978671;28;20457;-88
2023/11/02 06:08:54;;;;;;;0.20;0.20;;;;;;;18.31;96.33;99789.38;4977758;28;20471;-87
2023/11/02 06:11:20;;;;;;;0.22;0.22;;;;;;;18.76;93.98;99783.47;4976992;28;20026;-87
2023/11/02 06:13:45;;;;;;;0.20;0.20;;;;;;;18.89;91.67;99785.66;4994649;28;20089;-87
2023/11/02 06:16:11;;;;;;;0.20;0.20;;;;;;;19.13;91.36;99792.91;4977093;28;20037;-87
2023/11/02 06:18:36;;;;;;;0.20;0.20;;;;;;;18.83;91.95;99794.63;4995852;28;20069;-86
2023/11/02 06:21:02;;;;;;;0.20;0.20;;;;;;;18.35;94.81;99788.53;4977913;28;20029;-86
2023/11/02 06:23:27;;;;;;;0.20;0.20;;;;;;;17.90;98.79;99783.13;4976920;28;20120;-86
2023/11/02 06:25:53;;;;;;;0.20;0.20;;;;;;;18.65;95.88;99773.56;4994318;28;20077;-87
2023/11/02 06:28:19;;;;;;;0.20;0.20;;;;;;;19.85;87.53;99784.63;4994525;28;20038;-87
2023/11/02 06:30:45;;;;;;;0.30;0.30;;;;;;;20.10;86.03;99808.72;4976586;28;20034;-88
2023/11/02 06:33:30;;;;;;;0.20;0.20;;;;;;;20.20;81.03;99782.28;4994111;28;20469;-85
2023/11/02 06:35:56;;;;;;;0.20;0.20;;;;;;;21.28;77.24;99775.56;4994320;28;20034;-86
2023/11/02 06:38:22;;;;;;;0.20;0.20;;;;;;;21.32;74.90;99795.31;4993752;28;20033;-87
2023/11/02 06:40:49;;;;;;;0.22;0.22;;;;;;;21.38;73.13;99797.13;4976994;28;20030;-86
2023/11/02 06:43:14;;;;;;;0.20;0.20;;;;;;;21.10;76.08;99800.72;4994053;28;20453;-86
2023/11/02 06:45:40;;;;;;;0.20;0.20;;;;;;;21.67;73.16;99807.66;4976349;28;20031;-86
2023/11/02 06:48:05;;;;;;;0.20;0.20;;;;;;;21.70;70.37;99787.75;4994147;28;20084;-86
2023/11/02 06:50:32;;;;;;;0.20;0.20;;;;;;;21.64;67.12;99797.25;4994458;28;20038;-86
2023/11/02 06:52:57;;;;;;;0.20;0.20;;;;;;;20.13;76.30;99785.25;4988127;28;20058;-86
2023/11/02 06:55:23;;;;;;;0.20;0.20;;;;;;;20.07;75.44;99762.38;4995876;28;20181;-83
2023/11/02 06:57:48;;;;;;;0.20;0.20;;;;;;;21.02;73.63;99779.50;4995598;28;20026;-87
2023/11/02 07:00:14;;;;;;;0.20;0.20;;;;;;;21.05;72.00;99802.03;5013617;28;20087;-87
2023/11/02 07:02:40;;;;;;;0.20;0.20;;;;;;;20.99;74.41;99786.06;4996109;28;20014;-86
2023/11/02 07:05:05;;;;;;;0.20;0.20;;;;;;;20.67;74.79;99793.31;5012949;28;20028;-86
2023/11/02 07:07:35;;;;;;;0.20;0.20;;;;;;;21.98;66.56;99771.94;4983287;28;20027;-87
2023/11/02 07:10:04;;;;;;;0.20;0.20;;;;;;;21.75;68.83;99792.06;4975217;28;20042;-86
2023/11/02 07:12:29;;;;;;;0.20;0.20;;;;;;;21.98;67.28;99811.59;4975432;28;20041;-86
2023/11/02 07:14:55;;;;;;;0.20;0.20;;;;;;;21.86;68.08;99794.56;4975741;28;20030;-86
2023/11/02 07:17:22;;;;;;;0.20;0.20;;;;;;;21.32;67.57;99793.25;4993150;28;20390;-86
2023/11/02 07:19:47;;;;;;;0.20;0.20;;;;;;;21.28;67.98;99811.53;4975538;28;20438;-86
2023/11/02 07:22:13;;;;;;;0.20;0.20;;;;;;;21.36;71.11;99822.25;4993207;28;20076;-87
2023/11/02 07:24:39;;;;;;;0.20;0.20;;;;;;;21.66;71.69;99817.38;4975245;28;20026;-86
2023/11/02 07:27:04;;;;;;;0.20;0.20;;;;;;;22.55;65.02;99813.97;4992616;28;20495;-85
2023/11/02 07:29:30;;;;;;;0.20;0.20;;;;;;;22.51;64.93;99822.56;4992942;28;20129;-86
2023/11/02 07:31:56;;;;;;;0.20;0.20;;;;;;;22.42;65.29;99823.22;4975253;28;20030;-85
2023/11/02 07:34:22;;;;;;;0.20;0.20;;;;;;;22.57;64.69;99806.56;4975133;28;20045;-86
2023/11/02 07:36:49;;;;;;;0.20;0.20;;;;;;;22.96;63.54;99813.03;4992456;28;20038;-86
2023/11/02 07:39:16;;;;;;;0.20;0.20;;;;;;;23.26;58.63;99797.41;4992312;28;20077;-85
2023/11/02 07:41:41;;;;;;;0.10;0.10;;;;;;;22.44;62.60;99809.41;4974928;28;20022;-86
2023/11/02 07:44:06;;;;;;;0.20;0.20;;;;;;;21.22;68.41;99788.66;4975016;28;20509;-85
2023/11/02 07:46:33;;;;;;;0.20;0.20;;;;;;;21.08;70.65;99806.78;4975243;28;20110;-86
2023/11/02 07:48:58;;;;;;;0.20;0.20;;;;;;;20.67;73.62;99799.75;4974978;28;20022;-86
2023/11/02 07:51:23;;;;;;;0.20;0.20;;;;;;;21.48;69.58;99811.44;4975146;28;20100;-87
2023/11/02 07:53:49;;;;;;;0.20;0.20;;;;;;;20.98;73.73;99801.41;4974740;28;20034;-86
2023/11/02 07:56:14;;;;;;;0.20;0.20;;;;;;;20.31;76.78;99794.13;4974280;28;20053;-86
2023/11/02 07:58:42;;;;;;;0.20;0.20;;;;;;;20.98;75.02;99812.72;4975167;28;20022;-86
2023/11/02 08:01:10;;;;;;;0.20;0.20;;;;;;;20.33;77.61;99808.59;4975120;28;20053;-86
2023/11/02 08:03:36;;;;;;;0.20;0.20;;;;;;;19.94;80.97;99825.63;4974878;28;20037;-86
2023/11/02 08:06:02;;;;;;;0.20;0.20;;;;;;;20.71;78.32;99816.59;4992250;28;20022;-86
2023/11/02 08:08:27;;;;;;;0.20;0.20;;;;;;;20.69;78.33;99768.22;4992315;28;20033;-86
2023/11/02 08:10:56;;;;;;;0.20;0.20;;;;;;;21.12;75.83;99812.38;4974498;28;20018;-86
2023/11/02 08:13:22;;;;;;;0.20;0.20;;;;;;;21.94;70.62;99798.78;4992182;28;20080;-86
2023/11/02 08:15:47;;;;;;;0.20;0.20;;;;;;;20.32;77.32;99807.00;4975083;28;20046;-88
2023/11/02 08:18:13;;;;;;;0.20;0.20;;;;;;;19.49;86.06;99778.09;4974368;28;20110;-87
2023/11/02 08:20:38;;;;;;;0.20;0.20;;;;;;;19.22;87.79;99797.97;4974866;28;20030;-87
2023/11/02 08:23:04;;;;;;;0.20;0.20;;;;;;;18.58;93.81;99788.56;4974798;28;20113;-87
2023/11/02 08:25:29;;;;;;;0.20;0.20;;;;;;;18.14;96.99;99769.94;4991732;28;20027;-87
2023/11/02 08:27:58;;;;;;;0.20;0.20;;;;;;;18.29;96.45;99766.47;4974764;28;20478;-87
2023/11/02 08:30:24;;;;;;;0.20;0.20;;;;;;;18.08;98.69;99749.91;4974963;28;20022;-87
2023/11/02 08:32:54;;;;;;;0.20;0.20;;;;;;;17.94;100.00;99744.47;4974831;28;20393;-88
2023/11/02 08:35:21;;;;;;;0.22;0.22;;;;;;;17.98;100.00;99739.59;4974831;28;20022;-88
2023/11/02 08:37:51;;;;;;;0.20;0.20;;;;;;;17.67;100.00;99739.56;4975665;28;20019;-88
2023/11/02 08:40:18;;;;;;;0.20;0.20;;;;;;;18.03;100.00;99747.56;4976124;28;20049;-88
2023/11/02 08:42:44;;;;;;;0.30;0.30;;;;;;;17.87;100.00;99751.00;4975604;28;20027;-87
2023/11/02 08:45:13;;;;;;;0.20;0.20;;;;;;;17.79;100.00;99755.16;4975375;28;20054;-88
2023/11/02 08:47:39;;;;;;;0.20;0.20;;;;;;;18.06;100.00;99741.09;4974812;28;20031;-89
2023/11/02 08:50:06;;;;;;;0.20;0.20;;;;;;;17.97;100.00;99704.22;4992357;28;20034;-88
2023/11/02 08:52:32;;;;;;;0.20;0.20;;;;;;;18.04;100.00;99721.00;4981762;28;20089;-88
2023/11/02 08:54:59;;;;;;;0.20;0.20;;;;;;;17.96;100.00;99700.63;4998158;28;20036;-87
2023/11/02 08:57:25;;;;;;;0.20;0.20;;;;;;;18.80;100.00;99719.38;4973840;28;20022;-87
2023/11/02 08:59:50;;;;;;;0.20;0.20;;;;;;;19.09;100.00;99721.66;4991858;28;20493;-87
2023/11/02 09:02:16;;;;;;;0.20;0.20;;;;;;;19.83;96.86;99716.53;4974622;28;20126;-87
2023/11/02 09:04:42;;;;;;;0.20;0.20;;;;;;;19.48;90.88;99689.84;4974741;28;20033;-87
2023/11/02 09:07:07;;;;;;;0.20;0.20;;;;;;;20.15;86.93;99695.25;4974975;28;20494;-87
2023/11/02 09:09:33;;;;;;;0.20;0.20;;;;;;;20.59;84.38;99701.44;4994348;28;20060;-86
2023/11/02 09:11:58;;;;;;;0.20;0.20;;;;;;;20.79;81.72;99712.63;4977103;28;20117;-86
2023/11/02 09:14:24;;;;;;;0.20;0.20;;;;;;;20.73;77.43;99684.13;4977904;28;20054;-87
2023/11/02 09:16:49;;;;;;;0.20;0.20;;;;;;;21.07;77.48;99702.59;4977952;28;20101;-87
2023/11/02 09:19:14;;;;;;;0.20;0.20;;;;;;;20.98;77.77;99693.94;4994126;28;20030;-86
2023/11/02 09:21:42;;;;;;;0.20;0.20;;;;;;;21.49;72.83;99699.81;4978099;28;20162;-86
2023/11/02 09:24:08;;;;;;;0.20;0.20;;;;;;;21.36;71.42;99679.97;4980543;28;20222;-86
2023/11/02 09:26:33;;;;;;;0.20;0.20;;;;;;;21.49;71.51;99699.81;4996055;28;20130;-86
2023/11/02 09:28:59;;;;;;;0.20;0.20;;;;;;;22.34;68.35;99682.22;4977454;28;20046;-86
2023/11/02 09:31:29;;;;;;;0.20;0.20;;;;;;;22.43;65.04;99690.84;4977790;28;20041;-85
2023/11/02 09:33:56;;;;;;;0.20;0.20;;;;;;;22.91;64.54;99675.41;4977485;28;20147;-85
2023/11/02 09:36:23;;;;;;;0.20;0.20;;;;;;;22.41;64.44;99679.94;4977288;28;20190;-85
2023/11/02 09:38:48;;;;;;;0.20;0.20;;;;;;;22.40;63.96;99633.00;4996911;28;20042;-86
2023/11/02 09:41:14;;;;;;;0.20;0.20;;;;;;;22.77;62.10;99644.69;4977369;28;20023;-86
2023/11/02 09:43:41;;;;;;;0.20;0.20;;;;;;;22.28;64.28;99648.00;4977579;28;20112;-86
2023/11/02 09:46:07;;;;;;;0.20;0.20;;;;;;;22.41;62.60;99640.25;4977430;28;20117;-86
2023/11/02 09:48:32;;;;;;;0.20;0.20;;;;;;;21.87;64.15;99641.19;4977588;28;20457;-86
2023/11/02 09:50:59;;;;;;;0.20;0.20;;;;;;;21.98;62.93;99616.16;4977260;28;20030;-86
2023/11/02 09:53:26;;;;;;;0.20;0.20;;;;;;;22.40;62.84;99637.88;4977173;28;20042;-87
2023/11/02 09:55:52;;;;;;;0.20;0.20;;;;;;;22.81;62.00;99639.69;4977114;28;20030;-87
2023/11/02 09:58:19;;;;;;;0.20;0.20;;;;;;;22.60;62.69;99640.44;4976844;28;20031;-86
2023/11/02 10:00:46;;;;;;;0.20;0.20;;;;;;;22.27;62.73;99615.25;4994292;28;20029;-86
2023/11/02 10:03:12;;;;;;;0.20;0.20;;;;;;;23.22;59.73;99623.59;4977061;28;20133;-86
2023/11/02 10:05:38;;;;;;;0.20;0.20;;;;;;;24.01;57.74;99619.28;4994193;28;20490;-85
2023/11/02 10:08:04;;;;;;;0.20;0.20;;;;;;;23.84;56.81;99628.53;4976543;28;20033;-85
2023/11/02 10:10:33;;;;;;;0.20;0.20;;;;;;;24.69;54.89;99636.34;4976715;28;20502;-84
2023/11/02 10:13:02;;;;;;;0.10;0.10;;;;;;;23.44;57.17;99617.94;4977070;28;20041;-85
2023/11/02 10:15:31;;;;;;;0.20;0.20;;;;;;;22.48;59.13;99600.34;4977183;28;20033;-86
2023/11/02 10:17:56;;;;;;;0.20;0.20;;;;;;;22.22;61.12;99604.50;4994109;28;20593;-86
2023/11/02 10:20:22;;;;;;;0.20;0.20;;;;;;;21.52;64.15;99597.84;4976821;28;20121;-87
2023/11/02 10:23:13;;;;;;;0.20;0.20;;;;;;;21.66;65.19;99586.03;4976503;28;20032;-86
2023/11/02 10:25:41;;;;;;;0.20;0.20;;;;;;;21.68;67.43;99575.06;4994576;28;20117;-86
2023/11/02 10:28:06;;;;;;;0.20;0.20;;;;;;;21.30;67.95;99574.25;4976761;28;20046;-86
2023/11/02 10:30:36;;;;;;;0.20;0.20;;;;;;;20.91;70.89;99567.69;4977545;28;20126;-86
2023/11/02 10:33:04;;;;;;;0.20;0.20;;;;;;;20.75;72.70;99562.09;4993407;28;20038;-86
2023/11/02 10:35:29;;;;;;;0.20;0.20;;;;;;;20.58;71.74;99547.25;4993787;28;20045;-86
2023/11/02 10:37:55;;;;;;;0.20;0.20;;;;;;;20.73;73.85;99559.75;4994307;28;20022;-86
2023/11/02 10:40:20;;;;;;;0.20;0.20;;;;;;;20.69;74.34;99546.94;4975996;28;20159;-86
2023/11/02 10:42:47;;;;;;;0.20;0.20;;;;;;;20.92;74.68;99547.44;4975650;28;20030;-86
2023/11/02 10:45:15;;;;;;;0.20;0.20;;;;;;;20.36;76.94;99532.88;4975537;28;20482;-85
2023/11/02 10:47:41;;;;;;;0.20;0.20;;;;;;;20.26;78.98;99537.59;4977041;28;20026;-86
2023/11/02 10:50:09;;;;;;;0.20;0.20;;;;;;;20.26;79.26;99520.63;4994514;28;20034;-86
2023/11/02 10:52:43;;;;;;;0.20;0.20;;;;;;;20.36;80.23;99525.19;4982665;28;20391;-86
2023/11/02 10:55:19;;;;;;;0.20;0.20;;;;;;;20.58;79.48;99527.47;4998548;28;20053;-87
2023/11/02 10:57:47;;;;;;;0.20;0.20;;;;;;;20.29;81.77;99519.72;4993240;28;20109;-87
2023/11/02 11:00:15;;;;;;;0.20;0.20;;;;;;;20.37;81.60;99514.69;4993378;28;20030;-87
2023/11/02 11:02:44;;;;;;;0.20;0.20;;;;;;;20.24;82.21;99511.81;4993244;28;20030;-87
2023/11/02 11:05:10;;;;;;;0.20;0.20;;;;;;;20.11;78.77;99513.78;4975788;28;20035;-87
2023/11/02 11:07:40;;;;;;;0.20;0.20;;;;;;;19.92;79.72;99501.38;4993483;28;20079;-88
2023/11/02 11:10:06;;;;;;;0.20;0.20;;;;;;;19.89;78.88;99485.31;4975813;28;20096;-88
2023/11/02 11:12:36;;;;;;;0.20;0.20;;;;;;;19.78;79.25;99451.72;4993355;28;20033;-88
2023/11/02 11:15:02;;;;;;;0.20;0.20;;;;;;;19.98;78.38;99485.50;4975506;28;20549;-88
2023/11/02 11:17:29;;;;;;;0.20;0.20;;;;;;;19.68;79.61;99452.00;4974950;28;20390;-87
2023/11/02 11:19:55;;;;;;;0.20;0.20;;;;;;;19.97;77.76;99488.75;4992688;28;20180;-87
2023/11/02 11:22:34;;;;;;;0.20;0.20;;;;;;;19.81;76.84;99456.47;4992614;28;20138;-89
2023/11/02 11:25:04;;;;;;;0.20;0.20;;;;;;;19.81;76.98;99467.75;4975150;28;20038;-88
2023/11/02 11:27:32;;;;;;;0.20;0.20;;;;;;;19.98;76.51;99453.66;4975574;28;20085;-88
2023/11/02 11:29:58;;;;;;;0.20;0.20;;;;;;;20.11;77.35;99463.75;4992723;28;20030;-88
2023/11/02 11:32:24;;;;;;;0.20;0.20;;;;;;;20.20;79.23;99456.66;4974436;28;20495;-88
2023/11/02 11:35:01;;;;;;;0.20;0.20;;;;;;;20.03;80.72;99458.75;4975222;28;20037;-88
2023/11/02 11:37:51;;;;;;;0.20;0.20;;;;;;;19.94;81.63;99455.75;4975037;28;20385;-88
2023/11/02 11:40:19;;;;;;;0.20;0.20;;;;;;;19.83;84.19;99453.22;4975163;28;20034;-88
2023/11/02 11:43:05;;;;;;;0.20;0.20;;;;;;;19.92;83.38;99425.16;4976383;28;20053;-88
2023/11/02 11:45:36;;;;;;;0.20;0.20;;;;;;;20.18;83.91;99445.78;4992516;28;20487;-88
2023/11/02 11:48:02;;;;;;;0.20;0.20;;;;;;;20.23;84.41;99436.00;4974948;28;20050;-87
2023/11/02 11:50:42;;;;;;;0.20;0.20;;;;;;;20.07;81.22;99412.22;4992892;28;20065;-87
2023/11/02 11:53:19;;;;;;;0.20;0.20;;;;;;;20.32;80.74;99428.47;4986899;28;20057;-87
2023/11/02 11:55:49;;;;;;;0.20;0.20;;;;;;;20.41;80.00;99437.06;4975644;28;20438;-87
2023/11/02 11:58:16;;;;;;;0.20;0.20;;;;;;;20.51;78.79;99437.25;4974696;28;20033;-86
2023/11/02 12:00:51;;;;;;;0.20;0.20;;;;;;;20.75;78.10;99427.22;4992339;28;20022;-86
2023/11/02 12:03:35;;;;;;;0.20;0.20;;;;;;;20.77;79.37;99424.72;4975088;28;20105;-86
2023/11/02 12:06:05;;;;;;;0.20;0.20;;;;;;;20.63;78.12;99408.22;4974550;28;20731;-85
2023/11/02 12:08:34;;;;;;;0.20;0.20;;;;;;;20.64;78.94;99416.22;4974574;28;20518;-86
2023/11/02 12:11:00;;;;;;;0.20;0.20;;;;;;;20.60;81.02;99434.53;4990780;28;20113;-85
2023/11/02 12:13:26;;;;;;;0.20;0.20;;;;;;;20.54;81.64;99425.03;4992574;28;20049;-85
2023/11/02 12:15:58;;;;;;;0.20;0.20;;;;;;;20.38;86.78;99437.97;4974427;28;20034;-86
2023/11/02 12:18:36;;;;;;;0.20;0.20;;;;;;;20.23;90.76;99419.84;4991871;28;20390;-86
2023/11/02 12:21:10;;;;;;;0.20;0.20;;;;;;;20.06;89.09;99416.28;4991691;28;20072;-86
2023/11/02 12:23:37;;;;;;;0.20;0.20;;;;;;;20.09;90.61;99429.50;4976944;28;20030;-86
2023/11/02 12:26:04;;;;;;;0.20;0.20;;;;;;;20.52;87.90;99425.50;4993688;28;20026;-86
2023/11/02 12:28:43;;;;;;;0.20;0.20;;;;;;;20.41;86.62;99408.03;5011487;28;20358;-86
2023/11/02 12:31:09;;;;;;;0.20;0.20;;;;;;;20.66;85.81;99418.59;5011349;28;20022;-86
2023/11/02 12:33:35;;;;;;;0.20;0.20;;;;;;;20.77;83.48;99390.00;5011299;28;20045;-86
2023/11/02 12:36:01;;;;;;;0.20;0.20;;;;;;;20.75;84.48;99401.78;5011164;28;20109;-86
2023/11/02 12:38:44;;;;;;;0.20;0.20;;;;;;;20.85;85.12;99417.63;5011199;28;20112;-85
2023/11/02 12:41:12;;;;;;;0.20;0.20;;;;;;;20.66;86.04;99401.66;5011313;28;20075;-85
2023/11/02 12:43:40;;;;;;;0.20;0.20;;;;;;;20.39;88.95;99394.34;4993422;28;20120;-86
2023/11/02 12:46:09;;;;;;;0.20;0.20;;;;;;;19.93;92.22;99342.03;4993472;28;20030;-86
2023/11/02 12:48:36;;;;;;;0.20;0.20;;;;;;;20.21;95.07;99388.44;5011090;28;20030;-86
2023/11/02 12:51:22;;;;;;;0.20;0.20;;;;;;;20.55;93.83;99384.22;4993200;28;20033;-87
2023/11/02 12:53:52;;;;;;;0.20;0.20;;;;;;;20.54;94.02;99394.75;4993194;28;20141;-87
2023/11/02 12:56:25;;;;;;;0.20;0.20;;;;;;;20.65;93.53;99377.44;4993338;28;20022;-87
2023/11/02 12:59:01;;;;;;;;;;;;;;;20.54;94.96;99399.59;4993534;28;20050;-87
2023/11/02 13:01:51;;;;;;;0.20;0.20;;;;;;;20.21;96.69;99394.06;4993830;28;20340;-89
2023/11/02 13:04:18;;;;;;;0.20;0.20;;;;;;;20.11;97.87;99378.22;5010046;28;20026;-88
2023/11/02 13:06:44;;;;;;;0.20;0.20;;;;;;;20.50;96.33;99370.66;5008867;28;20021;-88
2023/11/02 13:09:18;;;;;;;0.20;0.20;;;;;;;20.54;94.72;99362.88;5009947;28;20385;-87
2023/11/02 13:11:51;;;;;;;0.20;0.20;;;;;;;20.76;93.63;99369.44;4995180;28;20544;-88
2023/11/02 13:14:18;;;;;;;0.20;0.20;;;;;;;20.83;93.57;99357.13;4992697;28;20030;-88
2023/11/02 13:16:45;;;;;;;0.20;0.20;;;;;;;20.86;92.63;99337.19;4993330;28;20038;-88
2023/11/02 13:19:14;;;;;;;0.20;0.20;;;;;;;21.04;91.85;99347.13;4993176;28;20392;-88
2023/11/02 13:21:39;;;;;;;0.20;0.20;;;;;;;21.04;91.83;99338.66;5010755;28;20052;-88
2023/11/02 13:24:05;;;;;;;0.20;0.20;;;;;;;21.06;92.98;99339.00;4992933;28;20026;-88
2023/11/02 13:26:35;;;;;;;0.20;0.20;;;;;;;20.73;93.28;99330.00;4993292;28;20079;-88
2023/11/02 13:29:00;;;;;;;0.20;0.20;;;;;;;20.53;94.28;99316.06;4993142;28;20065;-87
2023/11/02 13:31:27;;;;;;;0.20;0.20;;;;;;;20.36;95.83;99330.28;4992144;28;20138;-87
2023/11/02 13:33:52;;;;;;;0.20;0.20;;;;;;;20.60;95.71;99335.63;4992954;28;20026;-89
2023/11/02 13:36:18;;;;;;;0.20;0.20;;;;;;;20.62;95.43;99333.16;4993173;28;20037;-87
2023/11/02 13:38:45;;;;;;;0.20;0.20;;;;;;;20.63;96.17;99332.69;4993028;28;20124;-88
2023/11/02 13:41:10;;;;;;;0.20;0.20;;;;;;;20.58;96.69;99321.94;5010830;28;20026;-88
2023/11/02 13:43:36;;;;;;;0.20;0.20;;;;;;;20.42;95.92;99311.53;5010538;28;20037;-88
2023/11/02 13:46:02;;;;;;;0.20;0.20;;;;;;;20.26;97.91;99293.88;5010819;28;20045;-88
2023/11/02 13:48:28;;;;;;;0.20;0.20;;;;;;;20.36;98.99;99321.00;4993069;28;20038;-87
2023/11/02 13:50:53;;;;;;;0.20;0.20;;;;;;;20.19;99.80;99294.91;4993070;28;20036;-88
2023/11/02 13:53:22;;;;;;;0.20;0.20;;;;;;;20.20;100.00;99299.31;4992741;28;20108;-88
2023/11/02 13:55:47;;;;;;;0.20;0.20;;;;;;;20.01;100.00;99300.28;5013125;28;20048;-88
2023/11/02 13:58:13;;;;;;;0.20;0.20;;;;;;;20.20;100.00;99319.06;4996515;28;20499;-87
2023/11/02 14:00:39;;;;;;;0.20;0.20;;;;;;;20.08;100.00;99314.16;4996509;28;20041;-88
2023/11/02 14:03:04;;;;;;;0.20;0.20;;;;;;;20.02;100.00;99296.19;4996415;28;20618;-88
2023/11/02 14:05:30;;;;;;;0.20;0.20;;;;;;;20.14;100.00;99295.47;4996661;28;20034;-88
2023/11/02 14:07:55;;;;;;;0.20;0.20;;;;;;;20.32;100.00;99306.19;4996187;28;20021;-87
2023/11/02 14:10:22;;;;;;;0.20;0.20;;;;;;;20.27;100.00;99304.72;4996455;28;20073;-88
2023/11/02 14:12:51;;;;;;;0.20;0.20;;;;;;;20.22;100.00;99290.38;4996486;28;20040;-87
2023/11/02 14:15:17;;;;;;;0.20;0.20;;;;;;;20.04;100.00;99273.97;5013637;28;20037;-87
2023/11/02 14:17:43;;;;;;;0.20;0.20;;;;;;;20.19;100.00;99282.78;5013692;28;20030;-86
2023/11/02 14:20:09;;;;;;;0.20;0.20;;;;;;;19.97;100.00;99243.13;5013842;28;20116;-87
2023/11/02 14:22:36;;;;;;;0.20;0.20;;;;;;;20.20;100.00;99284.38;4996024;28;20466;-86
2023/11/02 14:25:01;;;;;;;0.20;0.20;;;;;;;20.14;100.00;99278.50;5013533;28;20033;-86
2023/11/02 14:27:28;;;;;;;0.20;0.20;;;;;;;20.10;100.00;99263.69;5013525;28;20038;-86
2023/11/02 14:29:55;;;;;;;0.20;0.20;;;;;;;19.96;100.00;99230.25;5013454;28;20034;-86
2023/11/02 14:32:21;;;;;;;0.20;0.20;;;;;;;19.98;100.00;99262.44;4995416;28;20053;-87
2023/11/02 14:34:47;;;;;;;0.20;0.20;;;;;;;19.89;100.00;99271.56;4995684;28;20026;-86
2023/11/02 14:37:12;;;;;;;0.20;0.20;;;;;;;19.81;100.00;99241.97;4995056;28;20025;-87
2023/11/02 14:39:38;;;;;;;0.20;0.20;;;;;;;19.64;100.00;99237.63;5012940;28;20029;-87
2023/11/02 14:42:07;;;;;;;0.20;0.20;;;;;;;19.75;100.00;99254.25;4995564;28;20107;-87
2023/11/02 14:44:34;;;;;;;0.20;0.20;;;;;;;19.83;100.00;99256.44;4995700;28;20018;-86
2023/11/02 14:46:59;;;;;;;0.20;0.20;;;;;;;19.78;100.00;99261.84;4995207;28;20022;-86
2023/11/02 14:49:25;;;;;;;0.20;0.20;;;;;;;19.80;100.00;99262.97;4995505;28;20017;-85
2023/11/02 14:51:50;;;;;;;0.20;0.20;;;;;;;19.76;100.00;99261.47;4995703;28;20049;-87
2023/11/02 14:54:16;;;;;;;0.20;0.20;;;;;;;19.57;100.00;99232.19;4995508;28;20370;-87
2023/11/02 14:56:41;;;;;;;0.20;0.20;;;;;;;19.67;100.00;99231.09;4995517;28;20061;-88
2023/11/02 14:59:06;;;;;;;0.20;0.20;;;;;;;19.62;100.00;99240.13;4995765;28;20030;-88
2023/11/02 15:01:32;;;;;;;0.20;0.20;;;;;;;19.54;100.00;99233.06;4995394;28;20444;-88
2023/11/02 15:03:59;;;;;;;0.20;0.20;;;;;;;19.50;100.00;99230.34;4998002;28;20081;-88
2023/11/02 15:06:25;;;;;;;0.20;0.20;;;;;;;19.67;100.00;99250.88;5011470;28;20029;-88
2023/11/02 15:08:51;;;;;;;0.20;0.20;;;;;;;19.61;100.00;99244.19;5012653;28;20029;-86
2023/11/02 15:11:23;;;;;;;0.20;0.20;;;;;;;19.52;100.00;99229.91;4994903;28;20511;-86
2023/11/02 15:13:48;;;;;;;0.20;0.20;;;;;;;19.69;100.00;99256.84;4994754;28;20029;-86
2023/11/02 15:16:14;;;;;;;0.20;0.20;;;;;;;19.57;100.00;99235.00;4994534;28;20549;-86
2023/11/02 15:18:41;;;;;;;0.20;0.20;;;;;;;19.68;100.00;99241.16;4994810;28;20026;-86
2023/11/02 15:21:08;;;;;;;0.20;0.20;;;;;;;19.53;100.00;99223.81;4994974;28;20018;-86
2023/11/02 15:23:33;;;;;;;0.20;0.20;;;;;;;19.49;100.00;99216.69;4994205;28;20397;-88
2023/11/02 15:25:59;;;;;;;0.20;0.20;;;;;;;19.66;100.00;99240.03;5012656;28;20112;-88
2023/11/02 15:28:25;;;;;;;0.20;0.20;;;;;;;19.42;100.00;99208.44;4994481;28;20112;-86
2023/11/02 15:30:50;;;;;;;0.20;0.20;;;;;;;19.55;100.00;99212.09;5012344;28;20542;-86
2023/11/02 15:33:15;;;;;;;0.20;0.20;;;;;;;19.56;100.00;99224.97;4994637;28;20485;-86
2023/11/02 15:35:41;;;;;;;0.20;0.20;;;;;;;19.45;100.00;99207.56;4994313;28;20037;-86
2023/11/02 15:38:06;;;;;;;0.20;0.20;;;;;;;19.20;100.00;99172.38;4994003;28;20131;-86
2023/11/02 15:40:32;;;;;;;0.20;0.20;;;;;;;19.48;100.00;99201.00;5011728;28;20431;-88
2023/11/02 15:42:57;;;;;;;0.20;0.20;;;;;;;19.45;100.00;99182.16;4994196;28;20036;-89
2023/11/02 15:45:23;;;;;;;0.20;0.20;;;;;;;19.51;100.00;99188.84;4994484;28;20037;-89
2023/11/02 15:47:49;;;;;;;0.20;0.20;;;;;;;19.38;100.00;99174.69;5012119;28;20030;-89
2023/11/02 15:50:14;;;;;;;0.20;0.20;;;;;;;19.23;100.00;99151.75;5012088;28;20118;-88
2023/11/02 15:52:43;;;;;;;0.20;0.20;;;;;;;19.42;100.00;99178.19;4993977;28;20096;-89
2023/11/02 15:55:10;;;;;;;0.20;0.20;;;;;;;19.42;100.00;99177.41;4994666;28;20055;-90
2023/11/02 15:57:36;;;;;;;0.20;0.20;;;;;;;19.19;100.00;99153.09;4993885;28;20397;-89
2023/11/02 16:00:03;;;;;;;0.20;0.20;;;;;;;19.35;100.00;99178.41;5031052;28;20048;-89
2023/11/02 16:02:28;;;;;;;0.20;0.20;;;;;;;19.22;100.00;99178.34;5015245;28;20029;-89
2023/11/02 16:04:53;;;;;;;0.20;0.20;;;;;;;19.08;100.00;99157.00;5014478;28;20040;-90
2023/11/02 16:07:19;;;;;;;0.20;0.20;;;;;;;19.03;100.00;99159.56;5014277;28;20104;-90
2023/11/02 16:09:45;;;;;;;0.20;0.20;;;;;;;19.02;100.00;99146.72;5014449;28;20026;-90
2023/11/02 16:12:10;;;;;;;0.20;0.20;;;;;;;19.04;100.00;99156.31;5013842;28;20018;-90
2023/11/02 16:14:36;;;;;;;0.20;0.20;;;;;;;19.18;100.00;99177.69;5014377;28;20029;-89
2023/11/02 16:17:02;;;;;;;0.20;0.20;;;;;;;19.16;100.00;99174.50;5013965;28;20024;-89
2023/11/02 16:19:29;;;;;;;0.20;0.20;;;;;;;19.12;100.00;99170.97;5013865;28;20562;-89
2023/11/02 16:21:55;;;;;;;0.20;0.20;;;;;;;19.20;100.00;99192.13;5011305;28;20037;-90
2023/11/02 16:24:24;;;;;;;0.20;0.20;;;;;;;19.16;100.00;99197.06;5012188;28;20412;-87
2023/11/02 16:26:53;;;;;;;0.20;0.20;;;;;;;19.18;100.00;99182.53;5011178;28;20041;-88
2023/11/02 16:29:18;;;;;;;0.20;0.20;;;;;;;19.16;100.00;99182.16;5031158;28;20025;-88
2023/11/02 16:31:44;;;;;;;0.20;0.20;;;;;;;18.97;100.00;99159.34;5011676;28;20017;-86
2023/11/02 16:34:14;;;;;;;0.20;0.20;;;;;;;18.88;100.00;99149.94;5009584;28;20436;-84
2023/11/02 16:36:45;;;;;;;0.20;0.20;;;;;;;19.11;100.00;99192.75;5010282;28;20030;-88
2023/11/02 16:39:14;;;;;;;0.20;0.20;;;;;;;19.16;100.00;99194.22;5010166;28;20044;-88
2023/11/02 16:41:58;;;;;;;0.20;0.20;;;;;;;19.06;100.00;99187.66;5010816;28;20420;-88
2023/11/02 16:44:24;;;;;;;0.20;0.20;;;;;;;18.81;100.00;99137.63;5005202;28;20036;-88
2023/11/02 16:46:50;;;;;;;0.20;0.20;;;;;;;19.01;100.00;99168.47;4991889;28;20033;-87
2023/11/02 16:49:20;;;;;;;0.20;0.20;;;;;;;18.98;100.00;99162.94;4975407;28;20053;-87
2023/11/02 16:51:47;;;;;;;0.20;0.20;;;;;;;18.96;100.00;99154.13;5009104;28;20398;-88
2023/11/02 16:54:13;;;;;;;0.20;0.20;;;;;;;18.89;100.00;99137.41;4972026;28;20061;-87
2023/11/02 16:56:40;;;;;;;0.20;0.20;;;;;;;19.03;100.00;99148.31;4972087;28;20030;-88
2023/11/02 16:59:09;;;;;;;0.20;0.20;;;;;;;19.02;100.00;99149.53;4989914;28;20084;-87
2023/11/02 17:01:35;;;;;;;0.20;0.20;;;;;;;18.97;100.00;99144.44;4990624;28;20084;-88
2023/11/02 17:04:01;;;;;;;0.20;0.20;;;;;;;18.72;100.00;99114.13;4990109;28;20062;-88
2023/11/02 17:06:26;;;;;;;0.20;0.20;;;;;;;18.89;100.00;99137.41;4972811;28;20394;-88
2023/11/02 17:08:52;;;;;;;0.20;0.20;;;;;;;18.84;100.00;99131.06;4971969;28;20081;-88
2023/11/02 17:11:18;;;;;;;0.20;0.20;;;;;;;18.89;100.00;99120.50;4989778;28;20414;-89
2023/11/02 17:13:44;;;;;;;0.20;0.20;;;;;;;18.85;100.00;99081.13;4972615;28;20093;-88
2023/11/02 17:16:11;;;;;;;0.20;0.20;;;;;;;18.96;100.00;99092.09;4973541;28;20023;-89
2023/11/02 17:18:39;;;;;;;0.20;0.20;;;;;;;18.84;100.00;99057.81;4973488;28;20600;-87
2023/11/02 17:21:05;;;;;;;0.20;0.20;;;;;;;18.94;100.00;99060.78;4979622;28;20029;-88
2023/11/02 17:23:31;;;;;;;0.20;0.20;;;;;;;18.97;100.00;99059.91;4991599;28;20053;-88
2023/11/02 17:25:56;;;;;;;0.20;0.20;;;;;;;18.97;100.00;99062.72;4988311;28;20144;-87
2023/11/02 17:28:22;;;;;;;0.20;0.20;;;;;;;18.94;100.00;99072.03;4975152;28;20018;-88